Главная страница
METAR-TAF:

METAR-TAF

Аэропорты :

Stony Rapids, Саскачеван, Канада

широта: 59-15N, долгота: 105-50W, высота над уровнем моря: 250 м

Текущие метеонаблюдения

Эта сводка был подготовлена 24 минут назад, в 04:00 UTC
Ветер 3 Узел от восточно-северо-восточный
Температура -30°C
Влажность 68%
Давление 1017 hPa
Видимость: 14.5 км
ясное небо

METAR: CYSF 230400Z AUTO 07003KT 9SM CLR M30/M34 A3004 RMK SLP209

Время: 22:24 (04:24 UTC)

Прогноз

Эта сводка был подготовлена 4 часа и 44 минут назад, в 23:40 UTC
Прогноз действительный с 23-го 00 UTC до 23-го 12 UTC
Ветер 10 Узел от западный
Видимость: 10 км
Отдельные облака на высоте 3000 фута
временами
С 23-го 00 UTC до 23-го 12 UTC
Видимость: 8.0 км
Ледяные иглы

TAF: CYSF 222340Z 2300/2312 27010KT P6SM SCT030 TEMPO 2300/2312 5SM IC RMK FCST BASED ON AUTO OBS. NXT FCST BY 230600Z

Метеонаблюдения и прогнозы для более 4000 аэропортов (сводки METAR и TAF).

Имеющиеся станции представлены на карте желтыми и красными точками.

Чтобы увидеть название станции, наведите на нее мышь.

Затем щелкните, чтобы увидеть метеонаблюдения и метеопрогнозы.

Управление картой: чтобы увеличить масштаб, щелкните зеленые кнопки с черным крестиком; чтобы уменьшить масштаб, щелкните зеленую кнопку с тире; для просмотра соседних карт щелкайте зеленые стрелки.


METAR-TAF: